Time;durP1;ratioP1;P1;durP2;ratioP2;P2;SDS_P1;SDS_P2;PMS_P1;PMS_P2;Temp;Humidity;BMP_temperature;BMP_pressure;BME280_temperature;BME280_humidity;BME280_pressure;Samples;Min_cycle;Max_cycle;Signal;HPM_P1;HPM_P2
2023/02/16 00:00:49;;;;;;;;;;;;;;;-2.59;nan;101676.69;5074573;28;19920;-86
2023/02/16 00:03:16;;;;;;;;;;;;;;;-2.55;nan;101675.72;5052518;28;19927;-86
2023/02/16 00:05:41;;;;;;;;;;;;;;;-2.50;nan;101670.38;5049584;28;19921;-86
2023/02/16 00:08:06;;;;;;;;;;;;;;;-2.45;nan;101682.34;5054727;28;19946;-86
2023/02/16 00:10:33;;;;;;;;;;;;;;;-2.37;nan;101667.44;5079645;28;19916;-85
2023/02/16 00:15:42;;;;;;;;;;;;;;;-2.15;nan;101657.34;5075796;28;19961;-86
2023/02/16 00:18:18;;;;;;;;;;;;;;;-2.06;nan;101666.59;5073161;28;20390;-86
2023/02/16 00:20:43;;;;;;;;;;;;;;;-1.98;nan;101663.78;5055069;28;19931;-86
2023/02/16 00:23:08;;;;;;;;;;;;;;;-1.90;nan;101669.63;5049771;28;20075;-87
2023/02/16 00:25:34;;;;;;;;;;;;;;;-1.85;nan;101667.75;5051230;28;19925;-86
2023/02/16 00:28:01;;;;;;;;;;;;;;;-1.75;nan;101653.59;5049352;28;19916;-86
2023/02/16 00:30:26;;;;;;;;;;;;;;;-1.68;nan;101656.88;5055188;28;19921;-85
2023/02/16 00:32:51;;;;;;;;;;;;;;;-1.67;nan;101662.91;5049641;28;19920;-86
2023/02/16 00:35:17;;;;;;;;;;;;;;;-1.64;nan;101665.44;5060564;28;19916;-86
2023/02/16 00:37:43;;;;;;;;;;;;;;;-1.65;nan;101671.50;5060694;28;19964;-87
2023/02/16 00:40:09;;;;;;;;;;;;;;;-1.64;nan;101671.47;5057436;28;19939;-86
2023/02/16 00:42:59;;;;;;;;;;;;;;;-1.63;nan;101675.75;5050254;28;19916;-86
2023/02/16 00:45:25;;;;;;;;;;;;;;;-1.55;nan;101681.56;5056435;28;19921;-85
2023/02/16 00:47:50;;;;;;;;;;;;;;;-1.46;nan;101679.56;5077315;28;19922;-86
2023/02/16 00:50:15;;;;;;;;;;;;;;;-1.36;nan;101666.28;5062257;28;19930;-86
2023/02/16 00:52:41;;;;;;;;;;;;;;;-1.32;nan;101667.88;5055665;28;19927;-86
2023/02/16 00:55:13;;;;;;;;;;;;;;;-1.31;nan;101667.00;5077609;28;19920;-84
2023/02/16 00:57:41;;;;;;;;;;;;;;;-1.23;nan;101668.50;5068134;28;19927;-84
2023/02/16 01:00:12;;;;;;;;;;;;;;;-1.25;nan;101667.69;5068479;28;20011;-86
2023/02/16 01:02:38;;;;;;;;;;;;;;;-1.29;nan;101662.63;5070700;28;19916;-85
2023/02/16 01:05:03;;;;;;;;;;;;;;;-1.23;nan;101671.94;5072887;28;20430;-85
2023/02/16 01:12:57;;;;;;;;;;;;;;;-1.34;nan;101666.22;5074017;28;19924;-85
2023/02/16 01:15:23;;;;;;;;;;;;;;;-1.38;nan;101662.03;5048285;28;19920;-86
2023/02/16 01:17:49;;;;;;;;;;;;;;;-1.40;nan;101664.69;5069923;28;19924;-86
2023/02/16 01:20:21;;;;;;;;;;;;;;;-1.32;nan;101665.28;5060437;28;19923;-85
2023/02/16 01:22:47;;;;;;;;;;;;;;;-1.28;nan;101666.03;5064502;28;19970;-85
2023/02/16 01:25:13;;;;;;;;;;;;;;;-1.22;nan;101663.25;5049485;28;19924;-85
2023/02/16 01:27:38;;;;;;;;;;;;;;;-1.16;nan;101676.03;5070526;28;20744;-85
2023/02/16 01:30:04;;;;;;;;;;;;;;;-1.13;nan;101668.16;5060393;28;19914;-86
2023/02/16 01:32:29;;;;;;;;;;;;;;;-1.08;nan;101663.66;5059434;28;20354;-86
2023/02/16 01:34:54;;;;;;;;;;;;;;;-1.08;nan;101666.25;5078941;28;19917;-86
2023/02/16 01:37:19;;;;;;;;;;;;;;;-1.02;nan;101659.19;5061802;28;19912;-86
2023/02/16 01:39:45;;;;;;;;;;;;;;;-1.03;nan;101660.91;5060803;28;19993;-85
2023/02/16 01:42:14;;;;;;;;;;;;;;;-1.04;nan;101664.41;5064440;28;19968;-86
2023/02/16 01:44:44;;;;;;;;;;;;;;;-1.07;nan;101659.34;5056147;28;19948;-85
2023/02/16 01:47:32;;;;;;;;;;;;;;;-1.10;nan;101652.50;5063888;28;19916;-86
2023/02/16 01:49:58;;;;;;;;;;;;;;;-1.10;nan;101654.22;5045966;28;19916;-86
2023/02/16 01:52:36;;;;;;;;;;;;;;;-1.08;nan;101655.03;5060263;28;19912;-85
2023/02/16 01:55:04;;;;;;;;;;;;;;;-1.12;nan;101659.47;5074068;28;19978;-85
2023/02/16 01:57:30;;;;;;;;;;;;;;;-1.14;nan;101661.28;5075646;28;19919;-87
2023/02/16 01:59:55;;;;;;;;;;;;;;;-1.12;nan;101656.88;5077411;28;19920;-86
2023/02/16 02:02:24;;;;;;;;;;;;;;;-1.08;nan;101650.69;5056097;28;19920;-86
2023/02/16 02:07:57;;;;;;;;;;;;;;;-1.10;nan;101665.47;5076929;28;20034;-88
2023/02/16 02:10:39;;;;;;;;;;;;;;;-1.08;nan;101653.28;5059699;28;20414;-86
2023/02/16 02:13:24;;;;;;;;;;;;;;;-1.12;nan;101649.09;5055469;28;19962;-88
2023/02/16 02:15:49;;;;;;;;;;;;;;;-1.11;nan;101645.59;5064459;28;19919;-86
2023/02/16 02:18:15;;;;;;;;;;;;;;;-1.17;nan;101632.84;5074422;28;19912;-85
2023/02/16 02:23:47;;;;;;;;;;;;;;;-1.15;nan;101632.75;5071118;28;19931;-84
2023/02/16 02:26:30;;;;;;;;;;;;;;;-1.16;nan;101623.28;5055488;28;20316;-86
2023/02/16 02:28:55;;;;;;;;;;;;;;;-1.16;nan;101618.94;5049905;28;19971;-86
2023/02/16 02:31:33;;;;;;;;;;;;;;;-1.10;nan;101610.09;5063443;28;19916;-86
2023/02/16 02:34:23;;;;;;;;;;;;;;;-1.16;nan;101602.53;5070075;28;19916;-85
2023/02/16 02:37:00;;;;;;;;;;;;;;;-1.17;nan;101606.88;5057483;28;19926;-87
2023/02/16 02:39:32;;;;;;;;;;;;;;;-1.15;nan;101612.84;5073550;28;19916;-85
2023/02/16 02:42:10;;;;;;;;;;;;;;;-1.18;nan;101612.94;5059148;28;19950;-85
2023/02/16 02:44:45;;;;;;;;;;;;;;;-1.15;nan;101618.03;5058614;28;19920;-86
2023/02/16 02:47:10;;;;;;;;;;;;;;;-1.15;nan;101622.38;5066576;28;20337;-86
2023/02/16 02:49:36;;;;;;;;;;;;;;;-1.11;nan;101627.41;5052318;28;19971;-86
2023/02/16 02:52:01;;;;;;;;;;;;;;;-1.08;nan;101629.06;5067561;28;20300;-86
2023/02/16 03:00:42;;;;;;;;;;;;;;;-1.07;nan;101620.41;5067391;28;19943;-85
2023/02/16 03:03:43;;;;;;;;;;;;;;;-1.10;nan;101618.75;5064404;28;19951;-84
2023/02/16 03:06:12;;;;;;;;;;;;;;;-1.14;nan;101626.69;4990430;28;19921;-85
2023/02/16 03:08:39;;;;;;;;;;;;;;;-1.23;nan;101633.00;5045022;28;19916;-86
2023/02/16 03:13:54;;;;;;;;;;;;;;;-1.22;nan;101629.50;5061485;28;20423;-86
2023/02/16 03:16:22;;;;;;;;;;;;;;;-1.20;nan;101624.28;5068750;28;19917;-86
2023/02/16 03:29:50;;;;;;;;;;;;;;;-1.34;nan;101619.53;5071245;28;19922;-86
2023/02/16 03:32:15;;;;;;;;;;;;;;;-1.36;nan;101621.31;5072770;28;19912;-86
2023/02/16 03:34:41;;;;;;;;;;;;;;;-1.37;nan;101630.84;5076264;28;19966;-86
2023/02/16 03:37:06;;;;;;;;;;;;;;;-1.35;nan;101636.00;5072696;28;19912;-86
2023/02/16 03:40:26;;;;;;;;;;;;;;;-1.33;nan;101637.66;5075616;28;19917;-85
2023/02/16 03:42:18;;;;;;;;;;;;;;;-1.34;nan;101635.09;5074278;28;20156;-86
2023/02/16 03:44:43;;;;;;;;;;;;;;;-1.32;nan;101630.72;5056738;28;19919;-87
2023/02/16 03:47:09;;;;;;;;;;;;;;;-1.32;nan;101631.56;5054750;28;19916;-85
2023/02/16 03:49:34;;;;;;;;;;;;;;;-1.31;nan;101629.81;5057100;28;19912;-87
2023/02/16 03:52:00;;;;;;;;;;;;;;;-1.30;nan;101631.50;5057058;28;19959;-86
2023/02/16 03:54:25;;;;;;;;;;;;;;;-1.29;nan;101628.88;5073389;28;19956;-86
2023/02/16 03:56:50;;;;;;;;;;;;;;;-1.28;nan;101627.13;5054283;28;19913;-85
2023/02/16 03:59:15;;;;;;;;;;;;;;;-1.29;nan;101634.06;5047896;28;20421;-85
2023/02/16 04:01:40;;;;;;;;;;;;;;;-1.28;nan;101637.50;5070171;28;19917;-87
2023/02/16 04:04:05;;;;;;;;;;;;;;;-1.25;nan;101644.34;5060632;28;19923;-85
2023/02/16 04:06:31;;;;;;;;;;;;;;;-1.26;nan;101643.50;5069124;28;19980;-85
2023/02/16 04:08:56;;;;;;;;;;;;;;;-1.22;nan;101629.50;5063624;28;19916;-85
2023/02/16 04:14:05;;;;;;;;;;;;;;;-1.17;nan;101635.44;5067660;28;20181;-87
2023/02/16 04:16:30;;;;;;;;;;;;;;;-1.21;nan;101636.41;5057860;28;19916;-86
2023/02/16 04:18:55;;;;;;;;;;;;;;;-1.23;nan;101634.75;5060157;28;19922;-85
2023/02/16 04:21:21;;;;;;;;;;;;;;;-1.22;nan;101637.28;5049852;28;20337;-85
2023/02/16 04:23:46;;;;;;;;;;;;;;;-1.17;nan;101644.94;5056087;28;19955;-87
2023/02/16 04:26:11;;;;;;;;;;;;;;;-1.17;nan;101651.00;5070217;28;19931;-85
2023/02/16 04:28:36;;;;;;;;;;;;;;;-1.17;nan;101656.19;5069225;28;19916;-87
2023/02/16 04:31:01;;;;;;;;;;;;;;;-1.16;nan;101650.09;5073693;28;20377;-85
2023/02/16 04:33:26;;;;;;;;;;;;;;;-1.11;nan;101648.19;5072872;28;19916;-84
2023/02/16 04:35:52;;;;;;;;;;;;;;;-1.19;nan;101651.91;5055161;28;20471;-85
2023/02/16 04:38:17;;;;;;;;;;;;;;;-1.15;nan;101641.38;5067818;28;19964;-85
2023/02/16 04:40:42;;;;;;;;;;;;;;;-1.14;nan;101635.31;5058247;28;19917;-85
2023/02/16 04:43:07;;;;;;;;;;;;;;;-1.15;nan;101636.19;5048201;28;20007;-85
2023/02/16 04:45:32;;;;;;;;;;;;;;;-1.14;nan;101634.47;5052050;28;19931;-86
2023/02/16 04:47:58;;;;;;;;;;;;;;;-1.15;nan;101628.41;5049874;28;19917;-86
2023/02/16 04:50:23;;;;;;;;;;;;;;;-1.14;nan;101634.47;5071589;28;19921;-86
2023/02/16 04:52:48;;;;;;;;;;;;;;;-1.13;nan;101628.38;5072734;28;19924;-85
2023/02/16 04:55:13;;;;;;;;;;;;;;;-1.11;nan;101626.59;5052188;28;19916;-86
2023/02/16 04:57:39;;;;;;;;;;;;;;;-1.13;nan;101642.19;5056694;28;19948;-87
2023/02/16 05:00:05;;;;;;;;;;;;;;;-1.09;nan;101636.00;5048592;28;19966;-86
2023/02/16 05:02:31;;;;;;;;;;;;;;;-1.08;nan;101627.31;5073442;28;19988;-86
2023/02/16 05:04:56;;;;;;;;;;;;;;;-1.02;nan;101620.25;5054848;28;19944;-86
2023/02/16 05:07:21;;;;;;;;;;;;;;;-1.02;nan;101626.28;5051613;28;19925;-84
2023/02/16 05:09:46;;;;;;;;;;;;;;;-1.04;nan;101622.03;5052845;28;19916;-87
2023/02/16 05:14:55;;;;;;;;;;;;;;;-1.05;nan;101628.97;5075565;28;19923;-87
2023/02/16 05:17:22;;;;;;;;;;;;;;;-1.06;nan;101632.47;5068934;28;19916;-86
2023/02/16 05:19:49;;;;;;;;;;;;;;;-1.08;nan;101631.66;5055408;28;19924;-86
2023/02/16 05:22:15;;;;;;;;;;;;;;;-1.05;nan;101628.97;5067133;28;19939;-86
2023/02/16 05:24:41;;;;;;;;;;;;;;;-1.01;nan;101638.34;5052720;28;19931;-86
2023/02/16 05:27:07;;;;;;;;;;;;;;;-1.00;nan;101634.00;5056015;28;19970;-85
2023/02/16 05:29:33;;;;;;;;;;;;;;;-0.94;nan;101639.00;5067471;28;20324;-86
2023/02/16 05:31:58;;;;;;;;;;;;;;;-0.93;nan;101632.91;5055642;28;19977;-86
2023/02/16 05:34:23;;;;;;;;;;;;;;;-0.91;nan;101634.53;5056606;28;20007;-85
2023/02/16 05:36:48;;;;;;;;;;;;;;;-0.88;nan;101625.84;5072535;28;19927;-86
2023/02/16 05:39:14;;;;;;;;;;;;;;;-0.83;nan;101631.72;5090425;28;19915;-86
2023/02/16 05:41:39;;;;;;;;;;;;;;;-0.79;nan;101625.50;5084147;28;19912;-86
2023/02/16 05:44:07;;;;;;;;;;;;;;;-0.78;nan;101622.03;5080452;28;19912;-86
2023/02/16 05:46:34;;;;;;;;;;;;;;;-0.73;nan;101622.72;5079775;28;20158;-86
2023/02/16 05:48:59;;;;;;;;;;;;;;;-0.73;nan;101630.50;5080457;28;19919;-87
2023/02/16 05:51:25;;;;;;;;;;;;;;;-0.74;nan;101626.22;5096256;28;20421;-85
2023/02/16 05:53:50;;;;;;;;;;;;;;;-0.71;nan;101641.69;5080519;28;19920;-86
2023/02/16 05:56:16;;;;;;;;;;;;;;;-0.71;nan;101643.44;5098767;28;19959;-85
2023/02/16 05:58:42;;;;;;;;;;;;;;;-0.74;nan;101647.00;5071360;28;19959;-85
2023/02/16 06:01:07;;;;;;;;;;;;;;;-0.73;nan;101653.88;5066481;28;19966;-85
2023/02/16 06:03:32;;;;;;;;;;;;;;;-0.68;nan;101651.97;5051243;28;19927;-85
2023/02/16 06:05:58;;;;;;;;;;;;;;;-0.63;nan;101644.00;5069324;28;19917;-85
2023/02/16 06:08:23;;;;;;;;;;;;;;;-0.62;nan;101640.53;5072518;28;19924;-85
2023/02/16 06:10:49;;;;;;;;;;;;;;;-0.60;nan;101640.47;5054662;28;19917;-86
2023/02/16 06:13:15;;;;;;;;;;;;;;;-0.62;nan;101634.47;5048799;28;20013;-87
2023/02/16 06:15:40;;;;;;;;;;;;;;;-0.57;nan;101642.94;5054729;28;19912;-86
2023/02/16 06:18:05;;;;;;;;;;;;;;;-0.57;nan;101641.22;5059631;28;19917;-87
2023/02/16 06:20:31;;;;;;;;;;;;;;;-0.61;nan;101650.00;5078174;28;19923;-87
2023/02/16 06:22:56;;;;;;;;;;;;;;;-0.60;nan;101645.66;5062030;28;20737;-85
2023/02/16 06:25:21;;;;;;;;;;;;;;;-0.54;nan;101648.06;5079131;28;19959;-86
2023/02/16 06:27:46;;;;;;;;;;;;;;;-0.56;nan;101649.84;5047572;28;19913;-85
2023/02/16 06:30:12;;;;;;;;;;;;;;;-0.55;nan;101655.00;5059142;28;19956;-85
2023/02/16 06:32:37;;;;;;;;;;;;;;;-0.54;nan;101655.84;5077257;28;19919;-86
2023/02/16 06:35:03;;;;;;;;;;;;;;;-0.54;nan;101661.06;5070691;28;19947;-85
2023/02/16 06:37:28;;;;;;;;;;;;;;;-0.54;nan;101661.06;5073339;28;19956;-84
2023/02/16 06:39:55;;;;;;;;;;;;;;;-0.50;nan;101663.50;5062957;28;20285;-86
2023/02/16 06:42:20;;;;;;;;;;;;;;;-0.48;nan;101668.63;5080472;28;19912;-84
2023/02/16 06:44:46;;;;;;;;;;;;;;;-0.49;nan;101665.16;5084225;28;19917;-87
2023/02/16 06:47:12;;;;;;;;;;;;;;;-0.45;nan;101668.53;5072611;28;19932;-87
2023/02/16 06:49:37;;;;;;;;;;;;;;;-0.44;nan;101670.22;5056092;28;19917;-86
2023/02/16 06:52:02;;;;;;;;;;;;;;;-0.40;nan;101676.16;5073373;28;19947;-86
2023/02/16 06:54:27;;;;;;;;;;;;;;;-0.38;nan;101690.81;5060668;28;20005;-86
2023/02/16 06:56:52;;;;;;;;;;;;;;;-0.40;nan;101689.16;5072581;28;19916;-85
2023/02/16 06:59:18;;;;;;;;;;;;;;;-0.34;nan;101697.56;5056874;28;20110;-87
2023/02/16 07:02:02;;;;;;;;;;;;;;;;;;;;;
2023/02/16 07:04:27;;;;;;;;;;;;;;;-0.26;nan;101692.97;5080216;28;20003;-87
2023/02/16 07:06:53;;;;;;;;;;;;;;;-0.18;nan;101697.91;5049899;28;19955;-87
2023/02/16 07:09:18;;;;;;;;;;;;;;;-0.18;nan;101697.91;5082392;28;19912;-86
2023/02/16 07:11:43;;;;;;;;;;;;;;;-0.13;nan;101692.53;5065084;28;19916;-88
2023/02/16 07:14:09;;;;;;;;;;;;;;;-0.09;nan;101700.19;5064764;28;19922;-87
2023/02/16 07:16:34;;;;;;;;;;;;;;;-0.07;nan;101690.56;5067233;28;19912;-87
2023/02/16 07:18:59;;;;;;;;;;;;;;;-0.08;nan;101698.41;5065183;28;20448;-88
2023/02/16 07:21:25;;;;;;;;;;;;;;;-0.01;nan;101698.13;5052507;23;19937;-85
2023/02/16 07:23:53;;;;;;;;;;;;;;;0.08;nan;101694.38;5006949;28;19913;-87
2023/02/16 07:26:18;;;;;;;;;;;;;;;0.05;nan;101693.63;5006211;28;19922;-88
2023/02/16 07:28:43;;;;;;;;;;;;;;;0.03;nan;101696.28;4988275;28;19921;-85
2023/02/16 07:31:10;;;;;;;;;;;;;;;0.03;nan;101691.09;4987596;28;19921;-85
2023/02/16 07:33:35;;;;;;;;;;;;;;;0.09;nan;101687.41;4988806;28;19925;-87
2023/02/16 07:36:21;;;;;;;;;;;;;;;0.12;nan;101682.97;4980456;28;20398;-87
2023/02/16 07:38:46;;;;;;;;;;;;;;;0.20;nan;101691.31;4982863;28;19925;-85
2023/02/16 07:41:11;;;;;;;;;;;;;;;0.32;nan;101683.97;5004075;28;19914;-87
2023/02/16 07:43:39;;;;;;;;;;;;;;;0.36;nan;101676.00;4993053;28;19918;-88
2023/02/16 07:46:07;;;;;;;;;;;;;;;0.42;nan;101687.91;4994743;28;19918;-87
2023/02/16 07:48:33;;;;;;;;;;;;;;;0.54;nan;101686.59;4965624;28;20319;-87
2023/02/16 07:50:59;;;;;;;;;;;;;;;0.53;nan;101685.75;4988459;28;19914;-86
2023/02/16 07:53:25;;;;;;;;;;;;;;;0.53;nan;101675.34;5004580;28;19965;-84
2023/02/16 07:55:51;;;;;;;;;;;;;;;0.65;nan;101676.63;5009400;28;19913;-86
2023/02/16 07:58:26;;;;;;;;;;;;;;;0.76;nan;101677.06;4992508;28;19960;-85
2023/02/16 08:01:10;;;;;;;;;;;;;;;0.84;nan;101671.53;5013162;28;19914;-85
2023/02/16 08:03:35;;;;;;;;;;;;;;;0.97;nan;101674.50;4999786;28;19921;-85
2023/02/16 08:06:03;;;;;;;;;;;;;;;1.00;nan;101677.84;5013849;28;19917;-86
2023/02/16 08:08:29;;;;;;;;;;;;;;;1.10;nan;101680.91;4997483;28;19960;-84
2023/02/16 08:10:54;;;;;;;;;;;;;;;1.21;nan;101678.69;5014329;28;19914;-86
2023/02/16 08:13:20;;;;;;;;;;;;;;;1.23;nan;101673.44;4994833;28;20025;-86
2023/02/16 08:15:45;;;;;;;;;;;;;;;1.27;nan;101682.81;4984753;28;19914;-85
2023/02/16 08:18:14;;;;;;;;;;;;;;;1.23;nan;101681.25;4967406;28;19995;-86
2023/02/16 08:21:08;;;;;;;;;;;;;;;1.28;nan;101687.13;4964064;28;19929;-85
2023/02/16 08:27:25;;;;;;;;;;;;;;;;;;;;;
2023/02/16 08:30:43;;;;;;;;;;;;;;;;;;;;;
2023/02/16 08:36:34;;;;;;;;;;;;;;;;;;;;;
2023/02/16 08:39:07;;;;;;;;;;;;;;;1.88;nan;101689.78;4908493;28;19915;-85
2023/02/16 08:41:40;;;;;;;;;;;;;;;1.87;nan;101683.72;4991658;28;19914;-86
2023/02/16 08:44:24;;;;;;;;;;;;;;;;;;;;;
2023/02/16 08:47:05;;;;;;;;;;;;;;;2.09;nan;101688.81;4974521;28;19918;-85
2023/02/16 08:49:51;;;;;;;;;;;;;;;;;;;;;
2023/02/16 08:52:39;;;;;;;;;;;;;;;2.20;nan;101682.31;4975552;28;19913;-85
2023/02/16 08:55:23;;;;;;;;;;;;;;;2.26;nan;101685.47;4987234;28;20346;-85
2023/02/16 08:57:49;;;;;;;;;;;;;;;2.43;nan;101681.22;4992715;28;19943;-85
2023/02/16 09:00:41;;;;;;;;;;;;;;;2.47;nan;101686.25;4986204;28;20418;-84
2023/02/16 09:03:12;;;;;;;;;;;;;;;2.58;nan;101687.53;4973198;28;19937;-84
2023/02/16 09:05:40;;;;;;;;;;;;;;;2.65;nan;101688.94;4971976;28;19953;-85
2023/02/16 09:08:11;;;;;;;;;;;;;;;2.72;nan;101683.34;4978437;28;19921;-85
2023/02/16 09:10:39;;;;;;;;;;;;;;;2.80;nan;101684.75;4967415;28;19965;-85
2023/02/16 09:13:21;;;;;;;;;;;;;;;2.83;nan;101677.59;4973370;28;19921;-86
2023/02/16 09:16:00;;;;;;;;;;;;;;;2.89;nan;101676.47;4957547;28;20469;-84
2023/02/16 09:18:46;;;;;;;;;;;;;;;3.00;nan;101676.78;4974440;28;20214;-84
2023/02/16 09:21:32;;;;;;;;;;;;;;;3.10;nan;101688.50;4967858;28;19965;-85
2023/02/16 09:24:01;;;;;;;;;;;;;;;3.27;nan;101687.66;4968000;28;19914;-84
2023/02/16 09:26:28;;;;;;;;;;;;;;;3.32;nan;101690.03;4980837;28;19925;-84
2023/02/16 09:28:53;;;;;;;;;;;;;;;3.46;nan;101691.97;4996698;28;19914;-85
2023/02/16 09:31:24;;;;;;;;;;;;;;;3.61;nan;101692.03;5004031;28;20009;-85
2023/02/16 09:33:50;;;;;;;;;;;;;;;3.75;nan;101693.09;4984062;28;19914;-86
2023/02/16 09:36:15;;;;;;;;;;;;;;;3.93;nan;101686.91;4963258;28;20002;-87
2023/02/16 09:38:40;;;;;;;;;;;;;;;4.14;nan;101687.53;4979755;28;19940;-85
2023/02/16 09:41:07;;;;;;;;;;;;;;;4.36;nan;101696.84;4979567;28;19920;-86
2023/02/16 09:43:42;;;;;;;;;;;;;;;4.52;nan;101683.78;4981445;28;19929;-86
2023/02/16 09:46:14;;;;;;;;;;;;;;;4.63;nan;101690.13;4979762;28;19917;-86
2023/02/16 09:48:42;;;;;;;;;;;;;;;4.75;nan;101693.00;4971514;28;19952;-86
2023/02/16 09:51:10;;;;;;;;;;;;;;;4.76;nan;101697.31;4964327;28;19921;-85
2023/02/16 09:53:38;;;;;;;;;;;;;;;4.85;nan;101694.16;4979523;28;19948;-85
2023/02/16 09:56:12;;;;;;;;;;;;;;;4.91;nan;101691.22;4984210;28;20552;-86
2023/02/16 09:58:40;;;;;;;;;;;;;;;5.10;nan;101683.13;4984061;28;19914;-85
2023/02/16 10:01:18;;;;;;;;;;;;;;;5.22;nan;101674.56;4988244;28;19933;-86
2023/02/16 10:03:51;;;;;;;;;;;;;;;5.36;nan;101662.41;5004659;28;19997;-86
2023/02/16 10:06:29;;;;;;;;;;;;;;;5.48;nan;101661.69;4986762;28;19932;-86
2023/02/16 10:08:59;;;;;;;;;;;;;;;5.63;nan;101665.22;4973066;28;19917;-86
2023/02/16 10:11:37;;;;;;;;;;;;;;;5.78;nan;101666.06;4992020;28;19925;-85
2023/02/16 10:14:15;;;;;;;;;;;;;;;5.90;nan;101663.53;4986238;28;20058;-86
2023/02/16 10:16:43;;;;;;;;;;;;;;;6.07;nan;101662.50;4985068;28;19914;-85
2023/02/16 10:19:17;;;;;;;;;;;;;;;6.22;nan;101658.13;4979005;28;19992;-85
2023/02/16 10:21:46;;;;;;;;;;;;;;;6.32;nan;101648.72;4995822;28;20363;-85
2023/02/16 10:24:12;;;;;;;;;;;;;;;6.43;nan;101648.03;4976696;28;19914;-85
2023/02/16 10:26:38;;;;;;;;;;;;;;;6.55;nan;101649.03;4966834;28;19946;-86
2023/02/16 10:29:09;;;;;;;;;;;;;;;6.70;nan;101648.06;4993824;28;19913;-85
2023/02/16 10:31:40;;;;;;;;;;;;;;;6.85;nan;101655.88;4976206;28;20438;-86
2023/02/16 10:34:18;;;;;;;;;;;;;;;6.99;nan;101659.28;4986755;28;19997;-86
2023/02/16 10:36:52;;;;;;;;;;;;;;;7.19;nan;101657.13;4976715;28;19920;-86
2023/02/16 10:39:20;;;;;;;;;;;;;;;7.40;nan;101658.31;4984641;28;20287;-86
2023/02/16 10:41:58;;;;;;;;;;;;;;;7.57;nan;101643.19;4987004;28;20311;-86
2023/02/16 10:44:29;;;;;;;;;;;;;;;7.79;nan;101645.19;4971640;28;19987;-87
2023/02/16 10:46:58;;;;;;;;;;;;;;;7.99;nan;101646.44;4973011;28;19918;-86
2023/02/16 10:49:24;;;;;;;;;;;;;;;8.16;nan;101643.44;4973320;28;20403;-86
2023/02/16 10:51:51;;;;;;;;;;;;;;;8.62;nan;101641.97;4966408;28;19917;-86
2023/02/16 10:54:34;;;;;;;;;;;;;;;9.94;nan;101638.13;4971869;28;20290;-86
2023/02/16 10:57:01;;;;;;;;;;;;;;;11.99;nan;101634.53;4979876;28;20016;-86
2023/02/16 10:59:35;;;;;;;;;;;;;;;13.60;nan;101628.75;4976723;28;19999;-87
2023/02/16 11:02:03;;;;;;;;;;;;;;;14.44;nan;101627.81;4973226;28;19918;-86
2023/02/16 11:04:28;;;;;;;;;;;;;;;;;;4983743;28;19914;-87
2023/02/16 11:06:53;;;;;;;;;;;;;;;;;;4987516;28;19925;-86
2023/02/16 11:09:26;;;;;;;;;;;;;;;12.21;nan;101617.59;4985877;28;19937;-87
2023/02/16 11:11:51;;;;;;;;;;;;;;;12.02;nan;101608.59;4978579;28;20259;-86
2023/02/16 11:14:16;;;;;;;;;;;;;;;;;;4983194;28;19936;-86
2023/02/16 11:16:42;;;;;;;;;;;;;;;;;;4982748;28;20286;-86
2023/02/16 11:19:07;;;;;;;;;;;;;;;;;;4985687;28;19917;-86
2023/02/16 11:21:32;;;;;;;;;;;;;;;;;;4991392;28;19925;-86
2023/02/16 11:23:57;;;;;;;;;;;;;;;;;;4994236;28;19914;-86
2023/02/16 11:26:22;;;;;;;;;;;;;;;;;;4982089;28;20306;-86
2023/02/16 11:28:47;;;;;;;;;;;;;;;;;;4989807;28;19914;-86
2023/02/16 11:31:12;;;;;;;;;;;;;;;;;;4984137;28;19914;-86
2023/02/16 11:33:39;;;;;;;;;;;;;;;;;;4992804;28;19941;-86
2023/02/16 11:36:04;;;;;;;;;;;;;;;;;;4982620;28;20001;-86
2023/02/16 11:38:29;;;;;;;;;;;;;;;;;;4981606;28;19941;-86
2023/02/16 11:40:54;;;;;;;;;;;;;;;;;;4977242;28;20326;-86
2023/02/16 11:43:19;;;;;;;;;;;;;;;;;;4991795;28;20337;-86
2023/02/16 11:45:45;;;;;;;;;;;;;;;;;;4995445;28;19918;-86
2023/02/16 11:48:10;;;;;;;;;;;;;;;;;;4979385;28;19929;-86
2023/02/16 11:50:37;;;;;;;;;;;;;;;;;;4987286;28;20000;-86
2023/02/16 11:53:08;;;;;;;;;;;;;;;12.85;nan;101542.78;4981252;28;19929;-85
2023/02/16 11:55:34;;;;;;;;;;;;;;;;;;4981213;28;19940;-85
2023/02/16 11:57:59;;;;;;;;;;;;;;;;;;4996478;28;19914;-85
2023/02/16 12:00:25;;;;;;;;;;;;;;;12.10;nan;101531.88;4994033;28;20169;-85
2023/02/16 12:03:09;;;;;;;;;;;;;;;11.99;nan;101531.16;4977972;28;19972;-85
2023/02/16 12:05:44;;;;;;;;;;;;;;;11.92;nan;101527.38;4995348;28;19914;-85
2023/02/16 12:08:29;;;;;;;;;;;;;;;11.86;nan;101520.78;4985892;28;19917;-84
2023/02/16 12:10:57;;;;;;;;;;;;;;;11.92;nan;101517.63;4986677;28;19910;-84
2023/02/16 12:13:31;;;;;;;;;;;;;;;11.84;nan;101530.66;4985649;28;19968;-85
2023/02/16 12:16:20;;;;;;;;;;;;;;;11.76;nan;101527.88;5001366;28;19924;-85
2023/02/16 12:18:53;;;;;;;;;;;;;;;11.65;nan;101534.91;4974362;28;19942;-85
2023/02/16 12:21:33;;;;;;;;;;;;;;;11.68;nan;101524.06;4980259;28;19945;-85
2023/02/16 12:24:16;;;;;;;;;;;;;;;11.69;nan;101527.56;4979197;28;20077;-84
2023/02/16 12:26:42;;;;;;;;;;;;;;;11.89;nan;101525.81;4966957;28;19929;-84
2023/02/16 12:29:22;;;;;;;;;;;;;;;11.86;nan;101512.81;4977084;28;20322;-84
2023/02/16 12:32:03;;;;;;;;;;;;;;;12.04;nan;101511.22;4987022;28;19931;-85
2023/02/16 12:34:37;;;;;;;;;;;;;;;11.99;nan;101509.94;4995852;28;19917;-85
2023/02/16 12:37:21;;;;;;;;;;;;;;;11.89;nan;101513.44;4994915;28;19914;-85
2023/02/16 12:40:01;;;;;;;;;;;;;;;11.77;nan;101509.16;4976270;28;19922;-87
2023/02/16 12:42:42;;;;;;;;;;;;;;;11.77;nan;101505.69;4975917;28;20377;-84
2023/02/16 12:45:21;;;;;;;;;;;;;;;11.71;nan;101508.88;4972754;28;20380;-86
2023/02/16 12:48:05;;;;;;;;;;;;;;;11.67;nan;101505.66;4989477;28;19926;-85
2023/02/16 12:50:32;;;;;;;;;;;;;;;11.57;nan;101505.63;4996142;28;19926;-85
2023/02/16 12:53:03;;;;;;;;;;;;;;;11.58;nan;101491.41;4991595;28;19925;-86
2023/02/16 12:55:37;;;;;;;;;;;;;;;11.68;nan;101488.81;4993737;28;19984;-86
2023/02/16 12:58:03;;;;;;;;;;;;;;;11.78;nan;101487.00;4994498;28;19993;-85
2023/02/16 13:00:48;;;;;;;;;;;;;;;11.85;nan;101489.97;4996423;28;19952;-86
2023/02/16 13:03:23;;;;;;;;;;;;;;;11.94;nan;101488.31;4994355;28;19918;-86
2023/02/16 13:05:53;;;;;;;;;;;;;;;11.97;nan;101486.25;4970577;28;19991;-83
2023/02/16 13:08:27;;;;;;;;;;;;;;;12.03;nan;101477.72;4974733;28;19964;-85
2023/02/16 13:10:58;;;;;;;;;;;;;;;12.06;nan;101473.94;4994999;28;19925;-86
2023/02/16 13:13:25;;;;;;;;;;;;;;;12.09;nan;101471.03;4992441;28;20021;-84
2023/02/16 13:15:55;;;;;;;;;;;;;;;12.14;nan;101462.69;4975357;28;19969;-84
2023/02/16 13:18:20;;;;;;;;;;;;;;;12.14;nan;101463.50;4977650;28;19949;-84
2023/02/16 13:21:04;;;;;;;;;;;;;;;12.15;nan;101451.91;4989690;28;19937;-84
2023/02/16 13:23:37;;;;;;;;;;;;;;;12.26;nan;101458.91;4992410;28;20017;-84
2023/02/16 13:26:21;;;;;;;;;;;;;;;12.32;nan;101453.88;4973472;28;19969;-84
2023/02/16 13:28:59;;;;;;;;;;;;;;;12.33;nan;101452.91;4982620;28;19925;-84
2023/02/16 13:31:24;;;;;;;;;;;;;;;12.40;nan;101447.88;4977773;28;19956;-85
2023/02/16 13:33:59;;;;;;;;;;;;;;;12.41;nan;101441.56;4977738;28;19918;-84
2023/02/16 13:36:43;;;;;;;;;;;;;;;12.40;nan;101441.75;4987377;28;20290;-85
2023/02/16 13:39:27;;;;;;;;;;;;;;;12.35;nan;101436.84;4992231;28;19917;-84
2023/02/16 13:42:05;;;;;;;;;;;;;;;12.33;nan;101436.97;4986981;28;19918;-85
2023/02/16 13:44:43;;;;;;;;;;;;;;;12.26;nan;101430.56;4992250;28;19924;-84
2023/02/16 13:47:12;;;;;;;;;;;;;;;12.25;nan;101436.88;4995549;28;19925;-85
2023/02/16 13:49:41;;;;;;;;;;;;;;;12.24;nan;101429.03;4978244;28;19922;-84
2023/02/16 13:52:08;;;;;;;;;;;;;;;12.22;nan;101425.69;4977216;28;19940;-84
2023/02/16 13:54:34;;;;;;;;;;;;;;;12.18;nan;101425.16;4975313;28;19926;-85
2023/02/16 13:57:03;;;;;;;;;;;;;;;12.17;nan;101419.97;4974820;28;19917;-85
2023/02/16 13:59:28;;;;;;;;;;;;;;;12.16;nan;101411.19;4991980;28;20298;-85
2023/02/16 14:01:54;;;;;;;;;;;;;;;12.19;nan;101404.75;4986146;28;19918;-84
2023/02/16 14:04:23;;;;;;;;;;;;;;;12.14;nan;101399.06;4995363;28;19917;-85
2023/02/16 14:06:50;;;;;;;;;;;;;;;12.16;nan;101402.41;4982314;28;19929;-85
2023/02/16 14:09:15;;;;;;;;;;;;;;;12.29;nan;101409.06;4991998;28;19932;-85
2023/02/16 14:11:49;;;;;;;;;;;;;;;12.43;nan;101407.78;4980317;28;19918;-85
2023/02/16 14:14:25;;;;;;;;;;;;;;;12.57;nan;101395.91;4979653;28;19972;-84
2023/02/16 14:16:50;;;;;;;;;;;;;;;12.74;nan;101405.75;4980236;28;19917;-86